Emerald Leader — C6WP4 — position and weather

sailwx.info

Track history (hours):
 
Tides and Currents Weather Stations Pressure Air Temp Water Temp Dewpoint Dewpoint Depression Visibility Wind Speed Wind Dir Waves Ship Positions

Emerald Leader

Last reported at 2018-Jan-19 22:31 UTC. Time now 2018-Jan-20 21:19 UTC.
Position N 36°49' E 023°34'.

Length 176 m; draft 8.3 m.

Type: Cargo ship. MMSI: 308688000.

Date/timePositionNaut miles runAvg speedWind from/ knotsBaromVisibWave heightAir tempDewpointWater temp
2018-Jan-19 22:31N 36°49' E 023°34'015.6
2018-Jan-19 22:29N 36°50' E 023°35'815.7
2018-Jan-19 21:58N 36°57' E 023°40'715.7
2018-Jan-19 21:30N 37°03' E 023°44'815.8
2018-Jan-19 21:00N 37°10' E 023°49'815.9
2018-Jan-19 20:30N 37°17' E 023°54'815.9
2018-Jan-19 20:00N 37°24' E 023°59'815.7
2018-Jan-19 19:30N 37°30' E 024°04'915.8
2018-Jan-19 18:58N 37°38' E 024°10'915.7
2018-Jan-19 18:25N 37°45' E 024°16'715.5
2018-Jan-19 17:58N 37°49' E 024°23'715.5
2018-Jan-19 17:30N 37°53' E 024°31'25912.6
2018-Jan-18 20:56N 40°26' E 029°00'4 0.5
2018-Jan-18 13:58N 40°25' E 029°05'4 3.9
2018-Jan-18 13:01N 40°23' E 029°01'0 1.7
2018-Jan-18 12:56N 40°23' E 029°01'2 1.7
2018-Jan-18 11:51N 40°23' E 028°58'2 1.5
2018-Jan-18 10:43N 40°25' E 028°59'2 2.0
2018-Jan-18 09:52N 40°24' E 029°01'1 2.1
2018-Jan-18 09:27N 40°24' E 029°00'17 4.4
2018-Jan-18 05:43N 40°39' E 028°53'3 9.5
2018-Jan-18 05:26N 40°40' E 028°56'4 9.6
2018-Jan-18 05:00N 40°42' E 029°01'5 9.5
2018-Jan-18 04:29N 40°43' E 029°07'4 8.9
2018-Jan-18 04:00N 40°44' E 029°13'4 8.7
2018-Jan-18 03:31N 40°45' E 029°18'5 8.6
2018-Jan-18 02:55N 40°45' E 029°25'511.4
2018-Jan-18 02:29N 40°45' E 029°31'  
2018-Jan-12 10:16N 42°59' E 010°03'416.3
2018-Jan-12 10:00N 43°03' E 010°04'816.3
2018-Jan-12 09:31N 43°11' E 010°06'816.3
2018-Jan-12 09:00N 43°19' E 010°07'816.2
2018-Jan-12 08:30N 43°27' E 010°10'713.0
2018-Jan-12 08:00N 43°32' E 010°15'3 6.7
2018-Jan-12 07:31N 43°34' E 010°18'1 1.0
2018-Jan-12 06:56N 43°35' E 010°18'0 0.0
2018-Jan-12 06:29N 43°35' E 010°18'0 0.0
2018-Jan-12 05:59N 43°35' E 010°18'0 0.0
2018-Jan-12 05:29N 43°35' E 010°18'0 0.0
2018-Jan-12 04:56N 43°35' E 010°18'0 0.0
2018-Jan-12 04:29N 43°35' E 010°18'0 0.0
2018-Jan-12 03:59N 43°35' E 010°18'0 0.0
2018-Jan-12 03:29N 43°35' E 010°18'0 0.0
2018-Jan-12 02:59N 43°35' E 010°18'0 0.0
2018-Jan-12 02:29N 43°35' E 010°18'0 0.0
2018-Jan-12 01:59N 43°35' E 010°18'0 0.0
2018-Jan-12 01:26N 43°35' E 010°18'0 0.0
2018-Jan-12 00:59N 43°35' E 010°18'0 0.0
2018-Jan-12 00:29N 43°35' E 010°18'0 0.0
2018-Jan-11 23:59N 43°35' E 010°18'0 0.0
2018-Jan-11 23:26N 43°35' E 010°18'0 0.0
2018-Jan-11 22:59N 43°35' E 010°18'0 0.0
2018-Jan-11 22:29N 43°35' E 010°18'0 0.0
2018-Jan-11 21:59N 43°35' E 010°18'0 0.0
2018-Jan-11 21:26N 43°35' E 010°18'0 0.0
2018-Jan-11 20:56N 43°35' E 010°18'0 0.0
2018-Jan-11 20:29N 43°35' E 010°18'0 0.0
2018-Jan-11 19:59N 43°35' E 010°18'0 0.0
2018-Jan-11 19:29N 43°35' E 010°18'0 0.0
2018-Jan-11 18:59N 43°35' E 010°18'0 0.0
2018-Jan-11 18:26N 43°35' E 010°18'0 0.0
2018-Jan-11 17:56N 43°35' E 010°18'0 0.0
2018-Jan-11 17:29N 43°35' E 010°18'0 0.0
2018-Jan-11 16:59N 43°35' E 010°18'0 0.0
2018-Jan-11 16:29N 43°35' E 010°18'0 0.0
2018-Jan-11 15:59N 43°35' E 010°18'0 0.0
2018-Jan-11 15:29N 43°35' E 010°18'0 0.0
2018-Jan-11 14:59N 43°35' E 010°18'0 0.0
2018-Jan-11 14:29N 43°35' E 010°18'0 0.0
2018-Jan-11 13:56N 43°35' E 010°18'0 0.0
2018-Jan-11 13:26N 43°35' E 010°18'0 0.0
2018-Jan-11 12:59N 43°35' E 010°18'0 0.0
2018-Jan-11 12:29N 43°35' E 010°18'0 0.0
2018-Jan-11 11:56N 43°35' E 010°18'0 0.0
2018-Jan-11 11:17N 43°35' E 010°18'0 0.0
2018-Jan-11 10:59N 43°35' E 010°18'0 0.0
2018-Jan-11 10:29N 43°35' E 010°18'0 0.0
2018-Jan-11 09:59N 43°35' E 010°18'1 1.9
2018-Jan-11 09:30N 43°34' E 010°18'3 5.7
2018-Jan-11 09:01N 43°31' E 010°16'1 1.1
2018-Jan-11 08:28N 43°31' E 010°16'0 0.0
2018-Jan-11 07:58N 43°31' E 010°16'0 0.0
2018-Jan-11 07:28N 43°31' E 010°16'0 0.0
2018-Jan-11 06:58N 43°31' E 010°16'0 0.0
2018-Jan-11 06:28N 43°31' E 010°16'0 0.0
2018-Jan-11 05:55N 43°31' E 010°16'0 0.1
2018-Jan-11 05:28N 43°31' E 010°16'0 0.0
2018-Jan-11 04:58N 43°31' E 010°16'0 0.0
2018-Jan-11 04:25N 43°31' E 010°16'0 0.0
2018-Jan-11 03:58N 43°31' E 010°16'0 0.0
2018-Jan-11 03:28N 43°31' E 010°16'0 0.1
2018-Jan-11 02:58N 43°31' E 010°16'0 0.0
2018-Jan-11 02:28N 43°31' E 010°16'0 0.0
2018-Jan-11 01:58N 43°31' E 010°16'0 0.0
2018-Jan-11 01:28N 43°31' E 010°16'0 0.1
2018-Jan-11 00:58N 43°31' E 010°16'0 0.0
2018-Jan-11 00:28N 43°31' E 010°16'0 0.0
2018-Jan-10 23:58N 43°31' E 010°16'0 0.0
2018-Jan-10 23:28N 43°31' E 010°16'0 0.0
2018-Jan-10 22:58N 43°31' E 010°16'0 0.1
2018-Jan-10 22:25N 43°31' E 010°16'0 0.0
2018-Jan-10 21:58N 43°31' E 010°16'0 0.0
2018-Jan-10 21:28N 43°31' E 010°16'0 0.0
2018-Jan-10 20:58N 43°31' E 010°16'0 0.0
2018-Jan-10 20:28N 43°31' E 010°16'0 0.1
2018-Jan-10 19:58N 43°31' E 010°16'0 0.1
2018-Jan-10 19:28N 43°31' E 010°16'0 0.0
2018-Jan-10 18:58N 43°31' E 010°16'0 0.0
2018-Jan-10 18:28N 43°31' E 010°16'0 0.0
2018-Jan-10 17:58N 43°31' E 010°16'0 0.1
2018-Jan-10 17:25N 43°31' E 010°17'0 1.0
2018-Jan-10 17:00N 43°31' E 010°16'713.2
2018-Jan-10 16:30N 43°26' E 010°09'816.4
2018-Jan-10 16:01N 43°20' E 010°02'815.6
2018-Jan-10 15:30N 43°17' E 009°53'816.2
2018-Jan-10 15:01N 43°14' E 009°42'815.9
2018-Jan-10 14:30N 43°11' E 009°32'  
Track history (hours):
 
Tides and Currents Weather Stations Pressure Air Temp Water Temp Dewpoint Dewpoint Depression Visibility Wind Speed Wind Dir Waves Ship Positions

Emerald Leader

Last reported at 2018-Jan-19 22:31 UTC. Time now 2018-Jan-20 21:19 UTC.
Position N 36°49' E 023°34'.

Length 176 m; draft 8.3 m.

Type: Cargo ship. MMSI: 308688000.

Date/timePositionNaut miles runAvg speedWind from/ knotsBaromVisibWave heightAir tempDewpointWater temp
2018-Jan-19 22:31N 36°49' E 023°34'015.6
2018-Jan-19 22:29N 36°50' E 023°35'815.7
2018-Jan-19 21:58N 36°57' E 023°40'715.7
2018-Jan-19 21:30N 37°03' E 023°44'815.8
2018-Jan-19 21:00N 37°10' E 023°49'815.9
2018-Jan-19 20:30N 37°17' E 023°54'815.9
2018-Jan-19 20:00N 37°24' E 023°59'815.7
2018-Jan-19 19:30N 37°30' E 024°04'915.8
2018-Jan-19 18:58N 37°38' E 024°10'915.7
2018-Jan-19 18:25N 37°45' E 024°16'715.5
2018-Jan-19 17:58N 37°49' E 024°23'715.5
2018-Jan-19 17:30N 37°53' E 024°31'25912.6
2018-Jan-18 20:56N 40°26' E 029°00'4 0.5
2018-Jan-18 13:58N 40°25' E 029°05'4 3.9
2018-Jan-18 13:01N 40°23' E 029°01'0 1.7
2018-Jan-18 12:56N 40°23' E 029°01'2 1.7
2018-Jan-18 11:51N 40°23' E 028°58'2 1.5
2018-Jan-18 10:43N 40°25' E 028°59'2 2.0
2018-Jan-18 09:52N 40°24' E 029°01'1 2.1
2018-Jan-18 09:27N 40°24' E 029°00'17 4.4
2018-Jan-18 05:43N 40°39' E 028°53'3 9.5
2018-Jan-18 05:26N 40°40' E 028°56'4 9.6
2018-Jan-18 05:00N 40°42' E 029°01'5 9.5
2018-Jan-18 04:29N 40°43' E 029°07'4 8.9
2018-Jan-18 04:00N 40°44' E 029°13'4 8.7
2018-Jan-18 03:31N 40°45' E 029°18'5 8.6
2018-Jan-18 02:55N 40°45' E 029°25'511.4
2018-Jan-18 02:29N 40°45' E 029°31'  
2018-Jan-12 10:16N 42°59' E 010°03'416.3
2018-Jan-12 10:00N 43°03' E 010°04'816.3
2018-Jan-12 09:31N 43°11' E 010°06'816.3
2018-Jan-12 09:00N 43°19' E 010°07'816.2
2018-Jan-12 08:30N 43°27' E 010°10'713.0
2018-Jan-12 08:00N 43°32' E 010°15'3 6.7
2018-Jan-12 07:31N 43°34' E 010°18'1 1.0
2018-Jan-12 06:56N 43°35' E 010°18'0 0.0
2018-Jan-12 06:29N 43°35' E 010°18'0 0.0
2018-Jan-12 05:59N 43°35' E 010°18'0 0.0
2018-Jan-12 05:29N 43°35' E 010°18'0 0.0
2018-Jan-12 04:56N 43°35' E 010°18'0 0.0
2018-Jan-12 04:29N 43°35' E 010°18'0 0.0
2018-Jan-12 03:59N 43°35' E 010°18'0 0.0
2018-Jan-12 03:29N 43°35' E 010°18'0 0.0
2018-Jan-12 02:59N 43°35' E 010°18'0 0.0
2018-Jan-12 02:29N 43°35' E 010°18'0 0.0
2018-Jan-12 01:59N 43°35' E 010°18'0 0.0
2018-Jan-12 01:26N 43°35' E 010°18'0 0.0
2018-Jan-12 00:59N 43°35' E 010°18'0 0.0
2018-Jan-12 00:29N 43°35' E 010°18'0 0.0
2018-Jan-11 23:59N 43°35' E 010°18'0 0.0
2018-Jan-11 23:26N 43°35' E 010°18'0 0.0
2018-Jan-11 22:59N 43°35' E 010°18'0 0.0
2018-Jan-11 22:29N 43°35' E 010°18'0 0.0
2018-Jan-11 21:59N 43°35' E 010°18'0 0.0
2018-Jan-11 21:26N 43°35' E 010°18'0 0.0
2018-Jan-11 20:56N 43°35' E 010°18'0 0.0
2018-Jan-11 20:29N 43°35' E 010°18'0 0.0
2018-Jan-11 19:59N 43°35' E 010°18'0 0.0
2018-Jan-11 19:29N 43°35' E 010°18'0 0.0
2018-Jan-11 18:59N 43°35' E 010°18'0 0.0
2018-Jan-11 18:26N 43°35' E 010°18'0 0.0
2018-Jan-11 17:56N 43°35' E 010°18'0 0.0
2018-Jan-11 17:29N 43°35' E 010°18'0 0.0
2018-Jan-11 16:59N 43°35' E 010°18'0 0.0
2018-Jan-11 16:29N 43°35' E 010°18'0 0.0
2018-Jan-11 15:59N 43°35' E 010°18'0 0.0
2018-Jan-11 15:29N 43°35' E 010°18'0 0.0
2018-Jan-11 14:59N 43°35' E 010°18'0 0.0
2018-Jan-11 14:29N 43°35' E 010°18'0 0.0
2018-Jan-11 13:56N 43°35' E 010°18'0 0.0
2018-Jan-11 13:26N 43°35' E 010°18'0 0.0
2018-Jan-11 12:59N 43°35' E 010°18'0 0.0
2018-Jan-11 12:29N 43°35' E 010°18'0 0.0
2018-Jan-11 11:56N 43°35' E 010°18'0 0.0
2018-Jan-11 11:17N 43°35' E 010°18'0 0.0
2018-Jan-11 10:59N 43°35' E 010°18'0 0.0
2018-Jan-11 10:29N 43°35' E 010°18'0 0.0
2018-Jan-11 09:59N 43°35' E 010°18'1 1.9
2018-Jan-11 09:30N 43°34' E 010°18'3 5.7
2018-Jan-11 09:01N 43°31' E 010°16'1 1.1
2018-Jan-11 08:28N 43°31' E 010°16'0 0.0
2018-Jan-11 07:58N 43°31' E 010°16'0 0.0
2018-Jan-11 07:28N 43°31' E 010°16'0 0.0
2018-Jan-11 06:58N 43°31' E 010°16'0 0.0
2018-Jan-11 06:28N 43°31' E 010°16'0 0.0
2018-Jan-11 05:55N 43°31' E 010°16'0 0.1
2018-Jan-11 05:28N 43°31' E 010°16'0 0.0
2018-Jan-11 04:58N 43°31' E 010°16'0 0.0
2018-Jan-11 04:25N 43°31' E 010°16'0 0.0
2018-Jan-11 03:58N 43°31' E 010°16'0 0.0
2018-Jan-11 03:28N 43°31' E 010°16'0 0.1
2018-Jan-11 02:58N 43°31' E 010°16'0 0.0
2018-Jan-11 02:28N 43°31' E 010°16'0 0.0
2018-Jan-11 01:58N 43°31' E 010°16'0 0.0
2018-Jan-11 01:28N 43°31' E 010°16'0 0.1
2018-Jan-11 00:58N 43°31' E 010°16'0 0.0
2018-Jan-11 00:28N 43°31' E 010°16'0 0.0
2018-Jan-10 23:58N 43°31' E 010°16'0 0.0
2018-Jan-10 23:28N 43°31' E 010°16'0 0.0
2018-Jan-10 22:58N 43°31' E 010°16'0 0.1
2018-Jan-10 22:25N 43°31' E 010°16'0 0.0
2018-Jan-10 21:58N 43°31' E 010°16'0 0.0
2018-Jan-10 21:28N 43°31' E 010°16'0 0.0
2018-Jan-10 20:58N 43°31' E 010°16'0 0.0
2018-Jan-10 20:28N 43°31' E 010°16'0 0.1
2018-Jan-10 19:58N 43°31' E 010°16'0 0.1
2018-Jan-10 19:28N 43°31' E 010°16'0 0.0
2018-Jan-10 18:58N 43°31' E 010°16'0 0.0
2018-Jan-10 18:28N 43°31' E 010°16'0 0.0
2018-Jan-10 17:58N 43°31' E 010°16'0 0.1
2018-Jan-10 17:25N 43°31' E 010°17'0 1.0
2018-Jan-10 17:00N 43°31' E 010°16'713.2
2018-Jan-10 16:30N 43°26' E 010°09'816.4
2018-Jan-10 16:01N 43°20' E 010°02'815.6
2018-Jan-10 15:30N 43°17' E 009°53'816.2
2018-Jan-10 15:01N 43°14' E 009°42'815.9
2018-Jan-10 14:30N 43°11' E 009°32'  

Dump ship's entire track history